Time;durP1;ratioP1;P1;durP2;ratioP2;P2;SDS_P1;SDS_P2;PMS_P1;PMS_P2;Temp;Humidity;BMP_temperature;BMP_pressure;BME280_temperature;BME280_humidity;BME280_pressure;Samples;Min_cycle;Max_cycle;Signal;HPM_P1;HPM_P2
2022/04/21 00:00:00;;;;;;;;;;;14.60;99.90;14.80;98652.00;;;;335879;28;100907;-92
2022/04/21 00:00:12;;;;;;;;;;;14.60;99.90;14.90;98656.00;;;;333060;29;83453;-91
2022/04/21 00:00:24;;;;;;;;;;;14.50;99.90;14.90;98645.00;;;;335859;28;101852;-90
2022/04/21 00:00:36;;;;;;;;;;;14.60;99.90;14.90;98658.00;;;;336877;28;82576;-91
2022/04/21 00:00:48;;;;;;;;;;;14.60;99.90;14.90;98652.00;;;;336955;28;101352;-91
2022/04/21 00:01:00;;;;;;;;;;;14.60;99.90;14.90;98655.00;;;;335344;29;82396;-91
2022/04/21 00:01:12;;;;;;;;;;;14.60;99.90;14.90;98647.00;;;;334124;28;100765;-91
2022/04/21 00:01:24;;;;;;;;;;;14.60;99.90;14.80;98652.00;;;;334168;29;83400;-91
2022/04/21 00:01:36;;;;;;;;;;;14.60;99.90;15.00;98651.00;;;;334093;29;100963;-92
2022/04/21 00:01:48;;;;;;;;;;;14.50;99.90;15.00;98653.00;;;;334917;29;82522;-91
2022/04/21 00:02:00;;;;;;;;;;;14.60;99.90;14.90;98657.00;;;;332784;29;100851;-91
2022/04/21 00:02:12;;;;;;;;;;;14.60;99.90;15.00;98653.00;;;;338158;28;83438;-91
2022/04/21 00:02:24;;;;;;;;;;;14.60;99.90;14.80;98655.00;;;;332931;28;99539;-91
2022/04/21 00:02:35;;;;;;;;;;;14.60;99.90;14.80;98652.00;;;;335844;29;83405;-91
2022/04/21 00:02:47;;;;;;;;;;;14.60;99.90;14.90;98644.00;;;;334290;29;100138;-91
2022/04/21 00:02:59;;;;;;;;;;;14.60;99.90;14.80;98652.00;;;;335353;28;83351;-92
2022/04/21 00:03:11;;;;;;;;;;;14.60;99.90;14.80;98652.00;;;;335564;29;102204;-92
2022/04/21 00:03:23;;;;;;;;;;;14.60;99.90;14.80;98652.00;;;;335655;29;83291;-91
2022/04/21 00:03:35;;;;;;;;;;;14.60;99.90;14.80;98655.00;;;;334483;29;100760;-91
2022/04/21 00:03:47;;;;;;;;;;;14.60;99.90;14.90;98657.00;;;;335549;29;83349;-92
2022/04/21 00:03:59;;;;;;;;;;;14.60;99.90;14.90;98663.00;;;;340954;28;99166;-92
2022/04/21 00:04:11;;;;;;;;;;;14.60;99.90;14.90;98649.00;;;;340940;28;82567;-91
2022/04/21 00:04:23;;;;;;;;;;;14.60;99.90;14.90;98653.00;;;;333164;28;101752;-91
2022/04/21 00:04:35;;;;;;;;;;;14.60;99.90;14.90;98653.00;;;;333875;29;83403;-91
2022/04/21 00:04:47;;;;;;;;;;;14.60;99.90;14.90;98648.00;;;;333752;29;101538;-91
2022/04/21 00:04:59;;;;;;;;;;;14.60;99.90;15.00;98642.00;;;;334242;28;83565;-92
2022/04/21 00:05:11;;;;;;;;;;;14.60;99.90;14.90;98657.00;;;;342701;28;101344;-91
2022/04/21 00:05:23;;;;;;;;;;;14.60;99.90;14.90;98653.00;;;;341191;28;83380;-91
2022/04/21 00:05:35;;;;;;;;;;;14.60;99.90;14.90;98653.00;;;;340275;28;100320;-91
2022/04/21 00:05:47;;;;;;;;;;;14.60;99.90;14.90;98654.00;;;;341019;28;83313;-91
2022/04/21 00:05:59;;;;;;;;;;;14.60;99.90;14.90;98651.00;;;;338523;28;100511;-91
2022/04/21 00:06:11;;;;;;;;;;;14.60;99.90;15.00;98656.00;;;;336708;28;83423;-91
2022/04/21 00:06:23;;;;;;;;;;;14.60;99.90;15.00;98654.00;;;;334141;28;101693;-91
2022/04/21 00:06:36;;;;;;;;;;;14.60;99.90;14.90;98651.00;;;;334119;28;83473;-91
2022/04/21 00:06:47;;;;;;;;;;;14.60;99.90;14.90;98647.00;;;;332962;29;100601;-91
2022/04/21 00:06:59;;;;;;;;;;;14.60;99.90;14.90;98660.00;;;;333999;28;82553;-91
2022/04/21 00:07:11;;;;;;;;;;;14.60;99.90;14.90;98648.00;;;;334120;28;100577;-91
2022/04/21 00:07:24;;;;;;;;;;;14.60;99.90;15.00;98649.00;;;;332808;29;82489;-91
2022/04/21 00:07:36;;;;;;;;;;;14.60;99.90;15.00;98643.00;;;;330937;29;102294;-91
2022/04/21 00:07:48;;;;;;;;;;;14.60;99.90;14.90;98645.00;;;;336488;28;83487;-91
2022/04/21 00:08:00;;;;;;;;;;;14.60;99.90;14.80;98652.00;;;;334114;28;101193;-91
2022/04/21 00:08:15;;;;;;;;;;;14.60;99.90;14.90;98642.00;;;;335164;28;82418;-91
2022/04/21 00:08:27;;;;;;;;;;;14.60;99.90;15.00;98642.00;;;;332925;29;100262;-91
2022/04/21 00:08:39;;;;;;;;;;;14.60;99.90;14.90;98649.00;;;;334027;29;83272;-91
2022/04/21 00:08:50;;;;;;;;;;;14.60;99.90;14.90;98640.00;;;;341009;28;101757;-91
2022/04/21 00:09:02;;;;;;;;;;;14.60;99.90;14.90;98647.00;;;;340789;28;83411;-91
2022/04/21 00:09:14;;;;;;;;;;;14.60;99.90;14.80;98654.00;;;;334244;29;101688;-92
2022/04/21 00:09:26;;;;;;;;;;;14.60;99.90;14.90;98653.00;;;;334028;29;82358;-91
2022/04/21 00:09:37;;;;;;;;;;;14.60;99.90;15.00;98654.00;;;;336777;28;101910;-91
2022/04/21 00:09:50;;;;;;;;;;;14.60;99.90;14.90;98652.00;;;;335273;28;83440;-90
2022/04/21 00:10:04;;;;;;;;;;;14.60;99.90;14.90;98649.00;;;;333077;29;100852;-91
2022/04/21 00:10:16;;;;;;;;;;;14.60;99.90;14.90;98649.00;;;;335293;28;83452;-91
2022/04/21 00:10:28;;;;;;;;;;;14.60;99.90;14.90;98646.00;;;;334915;28;101951;-91
2022/04/21 00:10:40;;;;;;;;;;;14.60;99.90;14.90;98654.00;;;;337432;28;83367;-92
2022/04/21 00:10:52;;;;;;;;;;;14.60;99.90;14.80;98653.00;;;;334240;29;101848;-91
2022/04/21 00:11:04;;;;;;;;;;;14.60;99.90;14.80;98648.00;;;;342889;28;83646;-91
2022/04/21 00:11:16;;;;;;;;;;;14.60;99.90;14.80;98646.00;;;;342153;28;101927;-91
2022/04/21 00:11:28;;;;;;;;;;;14.60;99.90;14.80;98649.00;;;;336651;28;83391;-91
2022/04/21 00:11:40;;;;;;;;;;;14.60;99.90;14.90;98650.00;;;;337911;28;100881;-91
2022/04/21 00:11:52;;;;;;;;;;;14.60;99.90;14.90;98646.00;;;;335372;29;83486;-91
2022/04/21 00:12:04;;;;;;;;;;;14.60;99.90;14.80;98645.00;;;;340843;28;98836;-91
2022/04/21 00:12:16;;;;;;;;;;;14.60;99.90;14.70;98647.00;;;;342198;28;83457;-91
2022/04/21 00:12:28;;;;;;;;;;;14.60;99.90;14.80;98653.00;;;;334188;29;101765;-91
2022/04/21 00:12:40;;;;;;;;;;;14.50;99.90;14.80;98646.00;;;;334041;29;83424;-91
2022/04/21 00:12:52;;;;;;;;;;;14.60;99.90;14.90;98645.00;;;;335460;28;100919;-91
2022/04/21 00:13:05;;;;;;;;;;;14.60;99.90;14.80;98649.00;;;;336654;28;82396;-91
2022/04/21 00:13:17;;;;;;;;;;;14.60;99.90;14.70;98648.00;;;;335616;28;100502;-92
2022/04/21 00:13:31;;;;;;;;;;;14.50;99.90;14.70;98649.00;;;;335731;28;82414;-91
2022/04/21 00:13:43;;;;;;;;;;;14.50;99.90;14.70;98651.00;;;;330498;28;102023;-91
2022/04/21 00:13:55;;;;;;;;;;;14.50;99.90;14.70;98640.00;;;;333908;29;83508;-91
2022/04/21 00:14:07;;;;;;;;;;;14.50;99.90;14.70;98648.00;;;;334038;29;100746;-92
2022/04/21 00:14:18;;;;;;;;;;;14.50;99.90;14.80;98651.00;;;;337828;28;83370;-91
2022/04/21 00:14:30;;;;;;;;;;;14.50;99.90;14.80;98643.00;;;;336811;28;101224;-91
2022/04/21 00:14:42;;;;;;;;;;;14.50;99.90;14.80;98640.00;;;;334126;29;83407;-91
2022/04/21 00:14:54;;;;;;;;;;;14.50;99.90;14.80;98647.00;;;;334016;28;100872;-91
2022/04/21 00:15:07;;;;;;;;;;;14.50;99.90;14.70;98645.00;;;;335412;29;83409;-91
2022/04/21 00:15:19;;;;;;;;;;;14.50;99.90;14.80;98641.00;;;;342477;28;101528;-91
2022/04/21 00:15:31;;;;;;;;;;;14.50;99.90;14.80;98648.00;;;;343502;28;82417;-91
2022/04/21 00:15:43;;;;;;;;;;;14.50;99.90;14.80;98642.00;;;;335268;28;100703;-91
2022/04/21 00:15:55;;;;;;;;;;;14.50;99.90;14.80;98647.00;;;;337868;28;82345;-91
2022/04/21 00:16:07;;;;;;;;;;;14.50;99.90;14.80;98649.00;;;;336814;28;101250;-91
2022/04/21 00:16:19;;;;;;;;;;;14.50;99.90;14.80;98649.00;;;;343454;28;82575;-91
2022/04/21 00:16:31;;;;;;;;;;;14.50;99.90;14.80;98643.00;;;;342733;28;101826;-91
2022/04/21 00:16:43;;;;;;;;;;;14.50;99.90;14.80;98640.00;;;;335222;29;83462;-91
2022/04/21 00:16:55;;;;;;;;;;;14.50;99.90;14.70;98654.00;;;;332861;29;102107;-91
2022/04/21 00:17:09;;;;;;;;;;;14.50;99.90;14.80;98645.00;;;;340779;28;82456;-90
2022/04/21 00:17:22;;;;;;;;;;;14.50;99.90;14.80;98646.00;;;;339721;28;101622;-91
2022/04/21 00:17:34;;;;;;;;;;;14.50;99.90;14.90;98643.00;;;;335888;28;82468;-91
2022/04/21 00:17:45;;;;;;;;;;;14.50;99.90;14.90;98647.00;;;;335463;28;101870;-91
2022/04/21 00:17:58;;;;;;;;;;;14.50;99.90;14.80;98638.00;;;;337960;28;83449;-91
2022/04/21 00:18:10;;;;;;;;;;;14.50;99.90;14.90;98649.00;;;;335341;28;100553;-91
2022/04/21 00:18:22;;;;;;;;;;;14.50;99.90;14.80;98639.00;;;;336559;28;83600;-91
2022/04/21 00:18:34;;;;;;;;;;;14.50;99.90;14.80;98641.00;;;;335516;28;100836;-92
2022/04/21 00:18:48;;;;;;;;;;;14.50;99.90;14.90;98643.00;;;;338011;28;83296;-91
2022/04/21 00:19:00;;;;;;;;;;;14.50;99.90;14.90;98641.00;;;;335455;28;102005;-91
2022/04/21 00:19:12;;;;;;;;;;;14.60;99.90;14.80;98643.00;;;;336510;28;83451;-91
2022/04/21 00:19:24;;;;;;;;;;;14.50;99.90;14.90;98646.00;;;;343756;28;100710;-91
2022/04/21 00:19:36;;;;;;;;;;;14.50;99.90;14.90;98641.00;;;;341611;28;83315;-91
2022/04/21 00:19:48;;;;;;;;;;;14.60;99.90;14.90;98643.00;;;;340846;28;100519;-91
2022/04/21 00:20:00;;;;;;;;;;;14.60;99.90;14.90;98629.00;;;;342015;28;83413;-91
2022/04/21 00:20:12;;;;;;;;;;;14.50;99.90;15.00;98632.00;;;;331639;29;101299;-91
2022/04/21 00:20:23;;;;;;;;;;;14.50;99.90;14.90;98644.00;;;;335372;29;82511;-91
2022/04/21 00:20:35;;;;;;;;;;;14.50;99.90;14.90;98641.00;;;;333328;29;102220;-91
2022/04/21 00:20:47;;;;;;;;;;;14.60;99.90;14.90;98646.00;;;;336583;28;83281;-91
2022/04/21 00:21:01;;;;;;;;;;;14.60;99.90;14.80;98643.00;;;;334263;29;100526;-91
2022/04/21 00:21:13;;;;;;;;;;;14.60;99.90;14.70;98641.00;;;;332704;29;83461;-91
2022/04/21 00:23:25;;;;;;;;;;;14.50;99.90;14.80;98640.00;;;;331726;29;100604;-91
2022/04/21 00:23:28;;;;;;;;;;;14.50;99.90;14.70;98650.00;;;;336928;28;99680;-91
2022/04/21 00:23:39;;;;;;;;;;;14.50;99.90;14.80;98647.00;;;;335115;29;83472;-92
2022/04/21 00:23:51;;;;;;;;;;;14.50;99.90;14.80;98638.00;;;;332931;29;101502;-91
2022/04/21 00:24:03;;;;;;;;;;;14.50;99.90;14.70;98642.00;;;;334067;29;83446;-91
2022/04/21 00:24:15;;;;;;;;;;;14.50;99.90;14.80;98643.00;;;;333912;29;101359;-91
2022/04/21 00:24:27;;;;;;;;;;;14.50;99.90;14.80;98642.00;;;;335408;29;82448;-91
2022/04/21 00:24:39;;;;;;;;;;;14.50;99.90;14.80;98647.00;;;;335511;28;101227;-91
2022/04/21 00:24:50;;;;;;;;;;;14.50;99.90;14.90;98645.00;;;;335235;29;83415;-91
2022/04/21 00:25:03;;;;;;;;;;;14.50;99.90;14.90;98639.00;;;;332892;28;101839;-91
2022/04/21 00:25:14;;;;;;;;;;;14.50;99.90;14.90;98631.00;;;;336642;28;83416;-91
2022/04/21 00:25:27;;;;;;;;;;;14.50;99.90;14.80;98648.00;;;;334063;29;101260;-91
2022/04/21 00:25:38;;;;;;;;;;;14.50;99.90;14.90;98635.00;;;;334869;28;83600;-91
2022/04/21 00:25:50;;;;;;;;;;;14.50;99.90;14.90;98638.00;;;;331451;29;102351;-91
2022/04/21 00:26:03;;;;;;;;;;;14.50;99.90;14.90;98647.00;;;;334645;29;83321;-91
2022/04/21 00:26:15;;;;;;;;;;;14.50;99.90;14.80;98641.00;;;;336700;28;100711;-91
2022/04/21 00:26:27;;;;;;;;;;;14.50;99.90;14.80;98643.00;;;;334075;29;83377;-91
2022/04/21 00:26:39;;;;;;;;;;;14.50;99.90;14.80;98641.00;;;;338362;28;101281;-91
2022/04/21 00:26:50;;;;;;;;;;;14.50;99.90;14.70;98645.00;;;;339441;28;82365;-92
2022/04/21 00:27:02;;;;;;;;;;;14.50;99.90;14.70;98637.00;;;;334170;28;102079;-92
2022/04/21 00:27:14;;;;;;;;;;;14.50;99.90;14.70;98644.00;;;;335183;29;83322;-91
2022/04/21 00:27:26;;;;;;;;;;;14.50;99.90;14.70;98645.00;;;;335570;28;100877;-91
2022/04/21 00:27:41;;;;;;;;;;;14.50;99.90;14.70;98641.00;;;;336575;28;83547;-92
2022/04/21 00:27:55;;;;;;;;;;;14.50;99.90;14.80;98636.00;;;;332978;29;100490;-91
2022/04/21 00:28:06;;;;;;;;;;;14.50;99.90;14.70;98642.00;;;;335365;29;82428;-91
2022/04/21 00:28:18;;;;;;;;;;;14.50;99.90;14.70;98634.00;;;;334093;28;101804;-91
2022/04/21 00:28:31;;;;;;;;;;;14.50;99.90;14.70;98644.00;;;;334950;29;82495;-92
2022/04/21 00:28:43;;;;;;;;;;;14.50;99.90;14.80;98642.00;;;;338672;28;100576;-91
2022/04/21 00:28:56;;;;;;;;;;;14.50;99.90;14.80;98636.00;;;;342069;28;82360;-91
2022/04/21 00:29:07;;;;;;;;;;;14.50;99.90;14.80;98634.00;;;;332886;29;101669;-91
2022/04/21 00:29:19;;;;;;;;;;;14.50;99.90;14.70;98637.00;;;;333986;29;83481;-91
2022/04/21 00:29:31;;;;;;;;;;;14.50;99.90;14.70;98639.00;;;;335700;28;100818;-91
2022/04/21 00:29:46;;;;;;;;;;;14.50;99.90;14.70;98642.00;;;;336656;28;83493;-91
2022/04/21 00:29:58;;;;;;;;;;;14.50;99.90;14.70;98638.00;;;;336845;28;100662;-91
2022/04/21 00:30:11;;;;;;;;;;;14.50;99.90;14.70;98643.00;;;;336594;28;83469;-92
2022/04/21 00:30:23;;;;;;;;;;;14.50;99.90;14.80;98636.00;;;;336740;28;101670;-91
2022/04/21 00:30:36;;;;;;;;;;;14.50;99.90;14.80;98636.00;;;;334072;29;83084;-91
2022/04/21 00:30:48;;;;;;;;;;;14.50;99.90;14.70;98630.00;;;;334008;29;101785;-91
2022/04/21 00:31:00;;;;;;;;;;;14.50;99.90;14.70;98630.00;;;;344807;28;82322;-92
2022/04/21 00:31:12;;;;;;;;;;;14.50;99.90;14.60;98637.00;;;;342359;28;101494;-91
2022/04/21 00:31:24;;;;;;;;;;;14.50;99.90;14.70;98641.00;;;;343545;28;82473;-91
2022/04/21 00:31:36;;;;;;;;;;;14.40;99.90;14.70;98636.00;;;;332643;29;99965;-91
2022/04/21 00:31:48;;;;;;;;;;;14.50;99.90;14.60;98634.00;;;;342159;28;83507;-91
2022/04/21 00:32:00;;;;;;;;;;;14.50;99.90;14.60;98632.00;;;;342645;28;102149;-91
2022/04/21 00:32:13;;;;;;;;;;;14.50;99.90;14.60;98630.00;;;;336696;28;83372;-91
2022/04/21 00:32:25;;;;;;;;;;;14.40;99.90;14.60;98641.00;;;;335517;28;101748;-91
2022/04/21 00:32:38;;;;;;;;;;;14.40;99.90;14.70;98633.00;;;;334264;29;82568;-91
2022/04/21 00:32:49;;;;;;;;;;;14.40;99.90;14.60;98633.00;;;;332882;29;100887;-91
2022/04/21 00:33:08;;;;;;;;;;;14.40;99.90;14.60;98637.00;;;;340747;28;82568;-91
2022/04/21 00:33:20;;;;;;;;;;;14.40;99.90;14.70;98637.00;;;;338350;28;100592;-91
2022/04/21 00:33:32;;;;;;;;;;;14.40;99.90;14.70;98628.00;;;;339466;28;83538;-91
2022/04/21 00:33:44;;;;;;;;;;;14.40;99.90;14.70;98627.00;;;;342145;28;100541;-91
2022/04/21 00:33:56;;;;;;;;;;;14.40;99.90;14.70;98639.00;;;;336614;28;83454;-91
2022/04/21 00:34:09;;;;;;;;;;;14.40;99.90;14.60;98626.00;;;;332949;29;101535;-90
2022/04/21 00:34:22;;;;;;;;;;;14.40;99.90;14.60;98627.00;;;;335211;28;83495;-91
2022/04/21 00:34:34;;;;;;;;;;;14.40;99.90;14.60;98632.00;;;;332367;29;101987;-91
2022/04/21 00:34:46;;;;;;;;;;;14.40;99.90;14.60;98631.00;;;;335229;28;83435;-91
2022/04/21 00:34:58;;;;;;;;;;;14.40;99.90;14.70;98632.00;;;;334201;28;101941;-91
2022/04/21 00:35:11;;;;;;;;;;;14.40;99.90;14.70;98628.00;;;;335356;29;83426;-91
2022/04/21 00:35:23;;;;;;;;;;;14.40;99.90;14.70;98631.00;;;;332848;29;102208;-91
2022/04/21 00:35:35;;;;;;;;;;;14.40;99.90;14.60;98633.00;;;;335898;28;82403;-91
2022/04/21 00:35:47;;;;;;;;;;;14.40;99.90;14.60;98629.00;;;;334334;29;100044;-91
2022/04/21 00:35:58;;;;;;;;;;;14.40;99.90;14.60;98625.00;;;;336524;28;83404;-91
2022/04/21 00:36:10;;;;;;;;;;;14.40;99.90;14.70;98628.00;;;;336741;28;100562;-91
2022/04/21 00:36:23;;;;;;;;;;;14.40;99.90;14.70;98627.00;;;;332677;29;82562;-91
2022/04/21 00:36:35;;;;;;;;;;;14.40;99.90;14.70;98630.00;;;;334183;29;100657;-91
2022/04/21 00:36:46;;;;;;;;;;;14.40;99.90;14.80;98636.00;;;;336719;28;82329;-90
2022/04/21 00:36:59;;;;;;;;;;;14.40;99.90;14.80;98631.00;;;;335446;28;100299;-91
2022/04/21 00:37:11;;;;;;;;;;;14.40;99.90;14.80;98632.00;;;;336625;28;83257;-90
2022/04/21 00:37:23;;;;;;;;;;;14.40;99.90;14.80;98629.00;;;;335274;28;101751;-91
2022/04/21 00:37:53;;;;;;;;;;;14.40;99.90;14.70;98629.00;;;;334981;28;83648;-91
2022/04/21 00:38:05;;;;;;;;;;;14.40;99.90;14.60;98627.00;;;;336487;28;101228;-91
2022/04/21 00:38:17;;;;;;;;;;;14.50;99.90;14.60;98635.00;;;;343491;28;83466;-91
2022/04/21 00:38:28;;;;;;;;;;;14.40;99.90;14.60;98624.00;;;;339683;28;101421;-91
2022/04/21 00:38:40;;;;;;;;;;;14.40;99.90;14.60;98629.00;;;;331488;29;82669;-91
2022/04/21 00:38:52;;;;;;;;;;;14.40;99.90;14.60;98629.00;;;;338341;28;101576;-91
2022/04/21 00:39:04;;;;;;;;;;;14.40;99.90;14.70;98635.00;;;;339435;28;83459;-91
2022/04/21 00:39:16;;;;;;;;;;;14.40;99.90;14.60;98631.00;;;;334267;29;100868;-91
2022/04/21 00:39:27;;;;;;;;;;;14.40;99.90;14.60;98630.00;;;;333931;29;83558;-91
2022/04/21 00:39:40;;;;;;;;;;;14.40;99.90;14.70;98630.00;;;;329075;29;101381;-91
2022/04/21 00:39:52;;;;;;;;;;;14.40;99.90;14.80;98631.00;;;;332805;29;83274;-91
2022/04/21 00:40:04;;;;;;;;;;;14.40;99.90;14.80;98635.00;;;;332999;29;101061;-91
2022/04/21 00:40:18;;;;;;;;;;;14.40;99.90;14.80;98625.00;;;;333954;29;82290;-91
2022/04/21 00:40:30;;;;;;;;;;;14.40;99.90;14.90;98620.00;;;;334253;29;102228;-91
2022/04/21 00:40:41;;;;;;;;;;;14.40;99.90;14.90;98629.00;;;;334132;29;82321;-91
2022/04/21 00:40:53;;;;;;;;;;;14.50;99.90;14.90;98629.00;;;;332863;29;100213;-91
2022/04/21 00:41:05;;;;;;;;;;;14.50;99.90;14.90;98635.00;;;;339498;28;82433;-91
2022/04/21 00:41:17;;;;;;;;;;;14.50;99.90;14.90;98630.00;;;;338413;28;101137;-91
2022/04/21 00:41:29;;;;;;;;;;;14.50;99.90;14.80;98628.00;;;;336789;28;82595;-91
2022/04/21 00:41:41;;;;;;;;;;;14.50;99.90;14.80;98620.00;;;;339653;28;101211;-91
2022/04/21 00:41:59;;;;;;;;;;;14.50;99.90;14.80;98638.00;;;;335318;29;83307;-91
2022/04/21 00:42:10;;;;;;;;;;;14.50;99.90;14.80;98630.00;;;;335653;28;99303;-91
2022/04/21 00:42:22;;;;;;;;;;;14.50;99.90;14.70;98629.00;;;;335181;29;83285;-91
2022/04/21 00:42:34;;;;;;;;;;;14.50;99.90;14.80;98633.00;;;;332860;29;101678;-91
2022/04/21 00:42:46;;;;;;;;;;;14.50;99.90;14.70;98630.00;;;;336541;28;83412;-91
2022/04/21 00:42:58;;;;;;;;;;;14.50;99.90;14.70;98632.00;;;;335442;28;100712;-91
2022/04/21 00:43:10;;;;;;;;;;;14.50;99.90;14.70;98626.00;;;;336477;28;83464;-91
2022/04/21 00:43:22;;;;;;;;;;;14.50;99.90;14.70;98627.00;;;;335459;28;102434;-92
2022/04/21 00:43:34;;;;;;;;;;;14.50;99.90;14.60;98630.00;;;;336473;28;83358;-91
2022/04/21 00:43:46;;;;;;;;;;;14.40;99.90;14.60;98630.00;;;;332114;29;101557;-90
2022/04/21 00:43:58;;;;;;;;;;;14.40;99.90;14.60;98625.00;;;;332755;29;83439;-91
2022/04/21 00:44:10;;;;;;;;;;;14.40;99.90;14.60;98628.00;;;;332997;29;101034;-91
2022/04/21 00:44:21;;;;;;;;;;;14.40;99.90;14.70;98628.00;;;;340732;28;83528;-91
2022/04/21 00:44:34;;;;;;;;;;;14.40;99.90;14.70;98626.00;;;;340376;28;101604;-92
2022/04/21 00:44:46;;;;;;;;;;;14.40;99.90;14.70;98630.00;;;;335344;29;83366;-91
2022/04/21 00:44:58;;;;;;;;;;;14.40;99.90;14.60;98625.00;;;;334151;29;100384;-91
2022/04/21 00:45:11;;;;;;;;;;;14.40;99.90;14.70;98625.00;;;;335280;29;83477;-91
2022/04/21 00:45:23;;;;;;;;;;;14.40;99.90;14.70;98628.00;;;;334188;29;101343;-91
2022/04/21 00:45:35;;;;;;;;;;;14.40;99.90;14.70;98633.00;;;;333909;29;83494;-90
2022/04/21 00:45:49;;;;;;;;;;;14.40;99.90;14.70;98626.00;;;;331573;29;102395;-91
2022/04/21 00:46:01;;;;;;;;;;;14.40;99.90;14.60;98630.00;;;;332778;29;83480;-91
2022/04/21 00:46:17;;;;;;;;;;;14.40;99.90;14.60;98621.00;;;;332938;29;99821;-91
2022/04/21 00:46:29;;;;;;;;;;;14.40;99.90;14.60;98628.00;;;;334952;29;83493;-91
2022/04/21 00:46:41;;;;;;;;;;;14.40;99.90;14.60;98634.00;;;;338275;28;101494;-91
2022/04/21 00:46:59;;;;;;;;;;;14.40;99.90;14.70;98621.00;;;;337926;28;82541;-91
2022/04/21 00:47:11;;;;;;;;;;;14.40;99.90;14.70;98632.00;;;;339684;28;101778;-91
2022/04/21 00:47:22;;;;;;;;;;;14.40;99.90;14.70;98627.00;;;;340876;28;83308;-92
2022/04/21 00:47:35;;;;;;;;;;;14.40;99.90;14.70;98631.00;;;;335150;28;100648;-91
2022/04/21 00:47:47;;;;;;;;;;;14.40;99.90;14.70;98622.00;;;;335744;28;83589;-91
2022/04/21 00:48:00;;;;;;;;;;;14.40;99.90;14.70;98624.00;;;;334848;29;100467;-91
2022/04/21 00:48:12;;;;;;;;;;;14.40;99.90;14.80;98622.00;;;;335837;29;82438;-91
2022/04/21 00:48:24;;;;;;;;;;;14.40;99.90;14.80;98621.00;;;;333559;29;100146;-92
2022/04/21 00:48:35;;;;;;;;;;;14.40;99.90;14.70;98629.00;;;;333234;29;83318;-91
2022/04/21 00:48:47;;;;;;;;;;;14.40;99.90;14.70;98619.00;;;;333414;29;102394;-91
2022/04/21 00:48:59;;;;;;;;;;;14.40;99.90;14.50;98627.00;;;;337040;28;82501;-91
2022/04/21 00:49:11;;;;;;;;;;;14.40;99.90;14.60;98628.00;;;;334830;29;100421;-91
2022/04/21 00:49:23;;;;;;;;;;;14.30;99.90;14.70;98628.00;;;;341333;28;83323;-91
2022/04/21 00:49:35;;;;;;;;;;;14.30;99.90;14.70;98630.00;;;;339748;28;100858;-91
2022/04/21 00:49:47;;;;;;;;;;;14.30;99.90;14.60;98622.00;;;;335663;29;82658;-91
2022/04/21 00:49:59;;;;;;;;;;;14.30;99.90;14.70;98622.00;;;;335787;28;100350;-91
2022/04/21 00:50:18;;;;;;;;;;;14.30;99.90;14.60;98624.00;;;;336886;28;83456;-91
2022/04/21 00:50:32;;;;;;;;;;;14.30;99.90;14.60;98625.00;;;;334599;29;100270;-91
2022/04/21 00:50:44;;;;;;;;;;;14.30;99.90;14.60;98621.00;;;;333236;29;83354;-91
2022/04/21 00:50:56;;;;;;;;;;;14.30;99.90;14.60;98626.00;;;;333362;29;101351;-91
2022/04/21 00:51:08;;;;;;;;;;;14.30;99.90;14.50;98624.00;;;;335838;29;82568;-91
2022/04/21 00:51:19;;;;;;;;;;;14.30;99.90;14.50;98623.00;;;;336031;28;101653;-91
2022/04/21 00:51:31;;;;;;;;;;;14.30;99.90;14.50;98620.00;;;;339801;28;82535;-91
2022/04/21 00:51:43;;;;;;;;;;;14.30;99.90;14.50;98629.00;;;;340161;28;100819;-91
2022/04/21 00:51:55;;;;;;;;;;;14.30;99.90;14.60;98626.00;;;;335833;29;83510;-91
2022/04/21 00:52:07;;;;;;;;;;;14.30;99.90;14.70;98625.00;;;;335823;28;101388;-91
2022/04/21 00:52:19;;;;;;;;;;;14.30;99.90;14.70;98623.00;;;;335289;29;83354;-90
2022/04/21 00:52:31;;;;;;;;;;;14.30;99.90;14.70;98622.00;;;;338680;28;99804;-91
2022/04/21 00:52:43;;;;;;;;;;;14.30;99.90;14.60;98620.00;;;;340729;28;82427;-92
2022/04/21 00:52:56;;;;;;;;;;;14.30;99.90;14.50;98621.00;;;;339623;28;101775;-91
2022/04/21 00:53:08;;;;;;;;;;;14.30;99.90;14.50;98630.00;;;;333897;28;83390;-91
2022/04/21 00:53:20;;;;;;;;;;;14.30;99.90;14.60;98623.00;;;;332834;29;102031;-91
2022/04/21 00:53:32;;;;;;;;;;;14.30;99.90;14.50;98625.00;;;;331855;29;83587;-91
2022/04/21 00:53:44;;;;;;;;;;;14.30;99.90;14.40;98627.00;;;;336857;28;101432;-91
2022/04/21 00:53:56;;;;;;;;;;;14.30;99.90;14.40;98624.00;;;;336609;28;83472;-91
2022/04/21 00:54:07;;;;;;;;;;;14.30;99.90;14.40;98626.00;;;;332868;29;101578;-91
2022/04/21 00:54:19;;;;;;;;;;;14.30;99.90;14.40;98617.00;;;;336568;28;82512;-90
2022/04/21 00:54:32;;;;;;;;;;;14.20;99.90;14.40;98621.00;;;;334239;29;101872;-91
2022/04/21 00:54:44;;;;;;;;;;;14.30;99.90;14.40;98619.00;;;;336508;28;83267;-90
2022/04/21 00:54:55;;;;;;;;;;;14.20;99.90;14.40;98618.00;;;;335415;28;101757;-91
2022/04/21 00:55:08;;;;;;;;;;;14.30;99.90;14.50;98623.00;;;;335324;29;83064;-91
2022/04/21 00:55:20;;;;;;;;;;;14.30;99.90;14.50;98621.00;;;;338373;28;101201;-91
2022/04/21 00:55:32;;;;;;;;;;;14.30;99.90;14.60;98621.00;;;;342254;28;86269;-91
2022/04/21 00:55:44;;;;;;;;;;;14.30;99.90;14.60;98617.00;;;;334018;29;101681;-91
2022/04/21 00:55:56;;;;;;;;;;;14.20;99.90;14.60;98620.00;;;;342133;28;82518;-91
2022/04/21 00:56:08;;;;;;;;;;;14.30;99.90;14.50;98620.00;;;;340728;28;101459;-91
2022/04/21 00:56:20;;;;;;;;;;;14.30;99.90;14.50;98615.00;;;;333905;29;83409;-90
2022/04/21 00:56:32;;;;;;;;;;;14.30;99.90;14.60;98620.00;;;;334509;28;100591;-91
2022/04/21 00:56:44;;;;;;;;;;;14.30;99.90;14.50;98619.00;;;;336586;28;83253;-91
2022/04/21 00:56:56;;;;;;;;;;;14.30;99.90;14.40;98621.00;;;;340857;28;100215;-91
2022/04/21 00:57:07;;;;;;;;;;;14.20;99.90;14.40;98614.00;;;;342134;28;83999;-91
2022/04/21 00:57:20;;;;;;;;;;;14.20;99.90;14.40;98618.00;;;;334081;29;102011;-90
2022/04/21 00:57:32;;;;;;;;;;;14.20;99.90;14.40;98623.00;;;;331373;29;83831;-91
2022/04/21 00:57:43;;;;;;;;;;;14.20;99.90;14.50;98625.00;;;;335477;28;101657;-91
2022/04/21 00:57:56;;;;;;;;;;;14.20;99.90;14.50;98624.00;;;;335283;29;83009;-91
2022/04/21 00:58:08;;;;;;;;;;;14.20;99.90;14.50;98619.00;;;;333946;29;100490;-91
2022/04/21 00:58:19;;;;;;;;;;;14.20;99.90;14.40;98611.00;;;;335162;29;83358;-91
2022/04/21 00:58:31;;;;;;;;;;;14.20;99.90;14.40;98621.00;;;;334146;28;101245;-91
2022/04/21 00:58:44;;;;;;;;;;;14.20;99.90;14.30;98612.00;;;;335472;28;83388;-91
2022/04/21 00:58:55;;;;;;;;;;;14.20;99.90;14.40;98622.00;;;;334073;29;101986;-91
2022/04/21 00:59:07;;;;;;;;;;;14.20;99.90;14.40;98618.00;;;;336522;28;83622;-91
2022/04/21 00:59:19;;;;;;;;;;;14.20;99.90;14.50;98626.00;;;;335490;28;101214;-91
2022/04/21 00:59:31;;;;;;;;;;;14.20;99.90;14.40;98619.00;;;;332767;29;82578;-91
2022/04/21 00:59:44;;;;;;;;;;;14.20;99.90;14.40;98619.00;;;;334188;28;102105;-91
2022/04/21 00:59:56;;;;;;;;;;;14.20;99.90;14.40;98623.00;;;;334048;29;82393;-91
2022/04/21 01:00:09;;;;;;;;;;;14.20;99.90;14.40;98623.00;;;;332901;29;101536;-91
2022/04/21 01:00:21;;;;;;;;;;;14.20;99.90;14.40;98622.00;;;;335300;28;82539;-91
2022/04/21 01:00:33;;;;;;;;;;;14.20;99.90;14.40;98621.00;;;;334242;29;100777;-91
2022/04/21 01:00:45;;;;;;;;;;;14.20;99.90;14.40;98616.00;;;;334034;29;83494;-91
2022/04/21 01:00:56;;;;;;;;;;;14.20;99.90;14.40;98612.00;;;;336748;28;101534;-91
2022/04/21 01:02:46;;;;;;;;;;;14.20;99.90;14.40;98622.00;;;;335310;29;83207;-91
2022/04/21 01:03:16;;;;;;;;;;;14.20;99.90;14.40;98630.00;;;;343705;28;101662;-91
2022/04/21 01:03:20;;;;;;;;;;;14.20;99.90;14.40;98628.00;;;;341877;28;83430;-91
2022/04/21 01:03:32;;;;;;;;;;;14.20;99.90;14.40;98623.00;;;;334059;28;101587;-91
2022/04/21 01:03:44;;;;;;;;;;;14.10;99.90;14.40;98621.00;;;;335277;29;83444;-91